Flight Track Log - Related Links

Times and Time Zones

All times are in EST time to prevent confusion due to time zone crossing. See the BOE4 flight status page for this flight to view local times or setup timezone preferences in your user account.

Time Position Orientation Groundspeed Altitude Reporting Facility
EST Latitude Longitude Course Direction KTS MPH feet Rate Location/Type
Mon 03:00:34 PM 47.5489 -122.3200 332° Northwest 184 212 1,100  Level Seattle Center
Mon 03:00:44 PM 47.5553 -122.3250 328° Northwest 188 216 1,600 1,224 Climbing Seattle Center
Mon 03:01:23 PM 47.5892 -122.3567 288° West 233 268 2,100 986 Climbing Seattle Center
Mon 03:01:57 PM 47.5967 -122.3917 239° Southwest 248 285 2,800 2,875 Climbing Seattle Center
Mon 03:02:59 PM 47.5494 -122.5075 237° Southwest 272 313 6,700 3,366 Climbing Seattle Center
Mon 03:04:00 PM 47.5067 -122.6044 237° Southwest 273 314 9,700 2,195 Climbing Seattle Center
Mon 03:05:02 PM 47.4592 -122.7108 237° Southwest 318 366 11,200 1,805 Climbing Seattle Center
Mon 03:06:03 PM 47.4056 -122.8325 237° Southwest 359 413 13,400 2,311 Climbing Seattle Center
Mon 03:07:04 PM 47.3508 -122.9572 237° Southwest 365 420 15,900 2,146 Climbing Seattle Center
Mon 03:08:06 PM 47.2936 -123.0850 237° Southwest 375 432 17,800 1,951 Climbing Seattle Center
Mon 03:09:07 PM 47.2342 -123.2197 235° Southwest 391 450 19,900 2,016 Climbing Seattle Center
Mon 03:10:08 PM 47.1581 -123.3786 187° South 399 459 21,900 1,756 Climbing Seattle Center
Mon 03:11:10 PM 47.0494 -123.3989 174° South 407 468 23,500 2,537 Climbing Seattle Center
Mon 03:12:11 PM 46.9447 -123.3836 178° South 382 440 27,100 2,213 Climbing Seattle Center
Mon 03:13:12 PM 46.8439 -123.3783 175° South 371 427 28,000 439 Climbing Seattle Center
Mon 03:14:14 PM 46.7347 -123.3642 177° South 393 452 28,000  Level Seattle Center
Mon 03:15:15 PM 46.6169 -123.3550 175° South 436 502 28,000  Level Seattle Center
Mon 03:16:16 PM 46.4644 -123.3375 175° South 463 533 28,000  Level Seattle Center
Mon 03:17:18 PM 46.3322 -123.3203 176° South 476 548 28,000 -49 Level Seattle Center
Mon 03:18:19 PM 46.2028 -123.3078 175° South 473 544 27,900  Descending Seattle Center
Mon 03:19:20 PM 46.0894 -123.2939 176° South 416 479 28,000  Climbing Seattle Center
Mon 03:20:22 PM 45.9797 -123.2819 175° South 402 463 27,900 -49 Descending Seattle Center
Mon 03:21:23 PM 45.8842 -123.2703 175° South 353 406 27,900 49 Level Seattle Center
Mon 03:22:24 PM 45.7867 -123.2592 176° South 351 404 28,000 49 Climbing Seattle Center
Mon 03:23:26 PM 45.6897 -123.2483 175° South 351 404 28,000  Level Seattle Center
Mon 03:24:27 PM 45.5919 -123.2369 175° South 352 405 28,000 -49 Level Seattle Center
Mon 03:25:29 PM 45.4756 -123.2231 175° South 350 403 27,900 -49 Descending Seattle Center
Mon 03:26:30 PM 45.3789 -123.2122 175° South 349 402 27,900 49 Level Seattle Center
Mon 03:27:31 PM 45.2831 -123.2011 176° South 346 398 28,000 49 Climbing Seattle Center
Mon 03:28:33 PM 45.1858 -123.1903 176° South 348 400 28,000  Level Seattle Center
Mon 03:29:34 PM 45.0886 -123.1803 176° South 348 400 28,000  Level Seattle Center
Mon 03:30:35 PM 44.9911 -123.1694 175° South 350 403 28,000 -49 Level Seattle Center
Mon 03:31:36 PM 44.8933 -123.1581 176° South 349 402 27,900  Descending Seattle Center
Mon 03:32:37 PM 44.7950 -123.1483 175° South 351 404 28,000 49 Climbing Seattle Center
Mon 03:33:39 PM 44.6981 -123.1372 176° South 351 404 28,000  Level Seattle Center
Mon 03:34:40 PM 44.6025 -123.1283 176° South 347 399 28,000  Level Seattle Center
Mon 03:35:41 PM 44.5069 -123.1181 176° South 344 396 28,000  Level Seattle Center
Mon 03:36:43 PM 44.4092 -123.1075 176° South 348 400 28,000  Level Seattle Center
Mon 03:37:44 PM 44.3131 -123.0969 175° South 348 400 28,000  Level Seattle Center
Mon 03:38:45 PM 44.1983 -123.0842 176° South 346 398 28,000  Level Seattle Center
Mon 03:39:46 PM 44.1025 -123.0750 176° South 346 398 28,000  Level Seattle Center
Mon 03:40:48 PM 44.0169 -123.0667 176° South 345 397 28,000  Level Seattle Center
Mon 03:41:49 PM 43.9208 -123.0569 176° South 344 396 28,000  Level Seattle Center
Mon 03:42:50 PM 43.8047 -123.0447 176° South 347 399 28,000  Level Seattle Center
Mon 03:43:52 PM 43.7089 -123.0353 176° South 346 398 28,000  Level Seattle Center
Mon 03:44:53 PM 43.6133 -123.0261 175° South 345 397 28,000  Level Seattle Center
Mon 03:45:54 PM 43.5175 -123.0156 176° South 345 397 28,000  Level Seattle Center
Mon 03:46:56 PM 43.4200 -123.0058 176° South 347 399 28,000  Level Seattle Center
Mon 03:47:57 PM 43.3236 -122.9964 175° South 348 400 28,000 -246 Level Seattle Center
Mon 03:48:58 PM 43.2267 -122.9853 176° South 349 402 27,500 -1,220 Descending Seattle Center
Mon 03:50:00 PM 43.1294 -122.9764 176° South 348 400 25,500 -1,707 Descending Seattle Center
Mon 03:51:01 PM 43.0347 -122.9669 176° South 343 395 24,000 -1,854 Descending Seattle Center
Mon 03:52:03 PM 42.9239 -122.9561 176° South 335 386 21,700 -1,902 Descending Seattle Center
Mon 03:53:04 PM 42.8336 -122.9467 176° South 328 377 20,100 -1,317 Descending Seattle Center
Mon 03:54:06 PM 42.7456 -122.9381 176° South 319 367 19,000 -537 Descending Seattle Center
Mon 03:55:07 PM 42.6589 -122.9289 176° South 310 357 19,000  Level Seattle Center
Mon 03:56:08 PM 42.5728 -122.9208 176° South 310 357 19,000 -49 Level Seattle Center
Mon 03:57:10 PM 42.4864 -122.9133 205° Southwest 311 358 18,900 -49 Descending Seattle Center
Mon 03:58:11 PM 42.4075 -122.9628 207° Southwest 316 364 18,900 49 Level Seattle Center
Mon 03:59:12 PM 42.3350 -123.0125 207° Southwest 298 343 19,000 49 Climbing Seattle Center
Mon 04:00:14 PM 42.2633 -123.0611 206° Southwest 290 334 19,000  Level Seattle Center
Mon 04:01:15 PM 42.1933 -123.1078 206° Southwest 286 329 19,000  Level Seattle Center
Mon 04:02:17 PM 42.1236 -123.1544 208° Southwest 283 326 19,000  Level Seattle Center
Mon 04:03:18 PM 42.0403 -123.2153 209° Southwest 283 326 19,000  Level Seattle Center
Mon 04:04:19 PM 41.9703 -123.2672 211° Southwest 285 328 19,000  Level Seattle Center
Mon 04:05:20 PM 41.9011 -123.3222 209° Southwest 286 329 19,000  Level Seattle Center
Mon 04:06:22 PM 41.8328 -123.3739 210° Southwest 285 328 19,000  Level Seattle Center
Mon 04:07:23 PM 41.7642 -123.4261 208° Southwest 284 327 19,000  Level Seattle Center
Mon 04:08:24 PM 41.6953 -123.4758 211° Southwest 283 326 19,000  Level Seattle Center
Mon 04:09:26 PM 41.6275 -123.5294 210° Southwest 282 325 19,000  Level Seattle Center
Mon 04:10:27 PM 41.5531 -123.5864 210° Southwest 283 326 19,000  Level Seattle Center
Mon 04:11:28 PM 41.4797 -123.6419 209° Southwest 295 339 19,000  Level Seattle Center
Mon 04:12:30 PM 41.4053 -123.6967 208° Southwest 303 349 19,000  Level Seattle Center
Mon 04:13:31 PM 41.3311 -123.7503 210° Southwest 304 350 19,000  Level Seattle Center
Mon 04:14:32 PM 41.2597 -123.8042 209° Southwest 300 345 19,000  Level Seattle Center
Mon 04:15:33 PM 41.1867 -123.8586 209° Southwest 262 302 19,000  Level Seattle Center
Mon 04:16:35 PM 41.1236 -123.9047 209° Southwest 260 299 19,000  Level Seattle Center
Mon 04:17:36 PM 41.0533 -123.9567 209° Southwest 285 328 19,000  Level Seattle Center
Mon 04:18:37 PM 40.9817 -124.0097 209° Southwest 292 336 19,000  Level Seattle Center
Mon 04:19:38 PM 40.9108 -124.0608 209° Southwest 293 337 19,000  Level Seattle Center
Mon 04:20:40 PM 40.8400 -124.1125 209° Southwest 292 336 19,000  Level Seattle Center
Mon 04:21:41 PM 40.7675 -124.1650 209° Southwest 296 341 19,000 -49 Level Seattle Center
Mon 04:22:42 PM 40.6944 -124.2186 223° Southwest 300 345 18,900  Descending Seattle Center
Mon 04:23:43 PM 40.6228 -124.3078 308° West 330 380 19,000  Climbing Seattle Center
Mon 04:24:45 PM 40.6767 -124.3989 358° North 362 417 18,900  Descending Seattle Center
Mon 04:25:46 PM 40.7753 -124.4031 27° Northeast 355 409 19,000 49 Climbing Seattle Center
Mon 04:26:47 PM 40.8536 -124.3500 107° East 343 395 19,000  Level Seattle Center
Mon 04:27:49 PM 40.8311 -124.2522 172° South 289 333 19,000  Level Seattle Center
Mon 04:28:50 PM 40.7519 -124.2369 179° South 295 339 19,000  Level Seattle Center
Mon 04:29:51 PM 40.6700 -124.2344 216° Southwest 294 338 19,000 -49 Level Seattle Center
Mon 04:30:53 PM 40.6064 -124.2964 297° West 321 369 18,900  Descending Seattle Center
Mon 04:31:54 PM 40.6458 -124.3989 357° North 355 409 19,000 49 Climbing Seattle Center
Mon 04:32:55 PM 40.7642 -124.4075 21° North 354 407 19,000 -49 Level Seattle Center
Mon 04:33:57 PM 40.8478 -124.3661 94° East 345 397 18,900 -49 Descending Seattle Center
Mon 04:34:58 PM 40.8425 -124.2650 163° South 275 316 18,900 49 Level Seattle Center
Mon 04:36:00 PM 40.7719 -124.2358 180° South 269 310 19,000 49 Climbing Seattle Center
Mon 04:37:01 PM 40.6986 -124.2353 226° Southwest 266 306 19,000 -33 Level Seattle Center
Mon 04:39:03 PM 40.6108 -124.3536 333° Northwest 305 351 18,900  Descending Seattle Center
Mon 04:40:05 PM 40.6858 -124.4044 358° North 320 368 19,000  Climbing Seattle Center
Mon 04:41:06 PM 40.7753 -124.4081 26° Northeast 321 369 18,900  Descending Seattle Center
Mon 04:42:08 PM 40.8478 -124.3608 103° East 307 353 19,000 49 Climbing Seattle Center
Mon 04:43:09 PM 40.8289 -124.2533 170° South 276 318 19,000  Level Seattle Center
Mon 04:44:10 PM 40.7583 -124.2369 179° South 267 307 19,000  Level Seattle Center
Mon 04:45:12 PM 40.6844 -124.2350 202° Southwest 266 306 19,000  Level Seattle Center
Mon 04:46:13 PM 40.6161 -124.2711 273° West 290 334 19,000  Level Seattle Center
Mon 04:47:15 PM 40.6194 -124.3728 343° North 311 358 19,000  Level Seattle Center
Mon 04:48:16 PM 40.7025 -124.4056 359° North 319 367 19,000  Level Seattle Center
Mon 04:49:17 PM 40.7914 -124.4083 39° Northeast 319 367 19,000  Level Seattle Center
Mon 04:50:19 PM 40.8525 -124.3422 117° Southeast 300 345 19,000 -49 Level Seattle Center
Mon 04:51:20 PM 40.8153 -124.2447 176° South 274 315 18,900  Descending Seattle Center
Mon 04:52:22 PM 40.7439 -124.2375 178° South 265 305 19,000 49 Climbing Seattle Center
Mon 04:53:23 PM 40.6681 -124.2342 215° Southwest 268 308 19,000  Level Seattle Center
Mon 04:54:25 PM 40.6086 -124.2900 288° West 298 343 19,000  Level Seattle Center
Mon 04:55:26 PM 40.6333 -124.3894 352° North 317 365 19,000  Level Seattle Center
Mon 04:56:27 PM 40.7200 -124.4064 360° North 318 366 19,000 -49 Level Seattle Center
Mon 04:57:29 PM 40.8094 -124.4069 55° Northeast 320 368 18,900  Descending Seattle Center
Mon 04:58:30 PM 40.8542 -124.3222 124° Southeast 275 316 19,000  Climbing Seattle Center
Mon 04:59:32 PM 40.8153 -124.2453 195° South 274 315 18,900 -634 Descending Seattle Center
Mon 05:00:33 PM 40.7322 -124.2750 210° Southwest 295 339 17,700 -1,377 Descending Seattle Center
Mon 05:01:34 PM 40.6658 -124.3250 210° Southwest 281 323 16,100 -1,317 Descending Seattle Center
Mon 05:02:36 PM 40.6008 -124.3736 211° Southwest 273 314 15,000 -585 Descending Seattle Center
Mon 05:03:37 PM 40.5400 -124.4217 217° Southwest 265 305 14,900  Descending Seattle Center
Mon 05:04:38 PM 40.4825 -124.4786 210° Southwest 262 302 15,000 98 Climbing Seattle Center
Mon 05:05:40 PM 40.4225 -124.5247 204° Southwest 257 296 15,100 49 Climbing Seattle Center
Mon 05:06:41 PM 40.3458 -124.5697 207° Southwest 256 295 15,100  Level Seattle Center
Mon 05:07:42 PM 40.2822 -124.6131 202° Southwest 257 296 15,100 -49 Level Seattle Center
Mon 05:08:44 PM 40.2156 -124.6483 209° Southwest 258 297 15,000 -49 Descending Seattle Center
Mon 05:09:45 PM 40.1536 -124.6933 220° Southwest 262 302 15,000 49 Level Seattle Center
Mon 05:10:46 PM 40.0961 -124.7556 210° Southwest 267 307 15,100 197 Climbing Seattle Center
Mon 05:11:47 PM 40.0325 -124.8036 210° Southwest 266 306 15,400 341 Climbing Seattle Center
Mon 05:12:49 PM 39.9667 -124.8528 209° Southwest 270 311 15,800 244 Climbing Seattle Center
Mon 05:13:50 PM 39.8978 -124.9033 210° Southwest 277 319 15,900 119 Climbing Seattle Center
Mon 05:14:30 PM 39.8419 -124.9458 209° Southwest 279 321 16,000 60 Climbing Oakland Center
Mon 05:15:30 PM 39.7758 -124.9933 209° Southwest 279 321 16,000  Level Oakland Center
Mon 05:16:30 PM 39.7075 -125.0433 165° South 279 321 16,000 -800 Level Oakland Center
Mon 05:17:30 PM 39.6497 -125.0239 52° Northeast 217 250 14,400 -1,200 Descending Oakland Center
Mon 05:18:30 PM 39.7028 -124.9353 29° Northeast 129 148 13,600 -450 Descending Oakland Center
Mon 05:19:30 PM 39.7989 -124.8650 28° Northeast 270 311 13,500 -74 Descending Oakland Center
Mon 05:21:12 PM 39.9617 -124.7508 29° Northeast 412 474 13,400 -258 Descending Seattle Center
Mon 05:22:13 PM 40.0650 -124.6764 25° Northeast 420 483 12,800 -488 Descending Seattle Center
Mon 05:23:15 PM 40.1706 -124.6114 10° North 424 488 12,400 -439 Descending Seattle Center
Mon 05:24:16 PM 40.2861 -124.5856 10° North 421 484 11,900 -443 Descending Seattle Center
Mon 05:25:17 PM 40.4031 -124.5578 10° North 421 484 11,500 -195 Descending Seattle Center
Mon 05:26:19 PM 40.5419 -124.5261 10° North 419 482 11,500  Level Seattle Center
Mon 05:27:20 PM 40.6572 -124.5006 10° North 418 481 11,500  Level Seattle Center
Mon 05:28:21 PM 40.7722 -124.4744 North 418 481 11,500  Level Seattle Center
Mon 05:29:23 PM 40.8903 -124.4483 10° North 421 484 11,500  Level Seattle Center
Mon 05:30:24 PM 41.0075 -124.4214 10° North 424 488 11,500  Level Seattle Center
Mon 05:31:25 PM 41.1225 -124.3944 11° North 423 487 11,500  Level Seattle Center
Mon 05:32:26 PM 41.2389 -124.3653 10° North 423 487 11,500  Level Seattle Center
Mon 05:33:27 PM 41.3539 -124.3372 North 421 484 11,500  Level Seattle Center
Mon 05:34:29 PM 41.4706 -124.3303 North 420 483 11,500  Level Seattle Center
Mon 05:35:30 PM 41.5867 -124.3197 North 419 482 11,500  Level Seattle Center
Mon 05:36:31 PM 41.7025 -124.3086 North 418 481 11,500  Level Seattle Center
Mon 05:37:32 PM 41.8417 -124.2986 North 417 480 11,500  Level Seattle Center
Mon 05:38:34 PM 41.9583 -124.2881 345° North 420 483 11,500 -878 Level Seattle Center
Mon 05:39:35 PM 42.0692 -124.3292 329° Northwest 414 476 9,700 -1,180 Descending Seattle Center
Mon 05:40:36 PM 42.1467 -124.3917 279° West 354 407 9,100 -1,180 Descending Seattle Center
Mon 05:41:37 PM 42.1564 -124.4731 85° East 321 369 7,300 -1,869 Descending Seattle Center
Mon 05:42:38 PM 42.1611 -124.3975 329° Northwest 288 331 5,300 -1,659 Descending Seattle Center
Mon 05:43:40 PM 42.2272 -124.4519 355° North 291 335 3,900 -1,122 Descending Seattle Center
Mon 05:44:41 PM 42.3011 -124.4606 357° North 269 310 3,000 -492 Descending Seattle Center
Mon 05:45:42 PM 42.3736 -124.4653 358° North 265 305 2,900 -49 Descending Seattle Center
Mon 05:46:43 PM 42.4503 -124.4697 354° North 272 313 2,900 -49 Level Seattle Center
Mon 05:47:44 PM 42.5264 -124.4800 352° North 274 315 2,800 44 Descending Seattle Center
Mon 05:48:58 PM 42.6283 -124.4986 348° North 269 310 3,000 133 Climbing Seattle Center
Mon 05:49:59 PM 42.7017 -124.5203 345° North 268 308 3,100  Climbing Seattle Center
Mon 05:51:00 PM 42.7742 -124.5464 348° North 269 310 3,000  Descending Seattle Center
Mon 05:52:01 PM 42.8475 -124.5678 14° North 269 310 3,100 246 Climbing Seattle Center
Mon 05:53:02 PM 42.9208 -124.5436 North 268 308 3,500 197 Climbing Seattle Center
Mon 05:54:03 PM 42.9986 -124.5258 16° North 265 305 3,500 228 Level Seattle Center
Mon 06:01:48 PM 43.5469 -124.3122 14° North 264 304 5,500 593 Climbing Seattle Center
Mon 06:02:49 PM 43.6225 -124.2856 16° North 272 313 8,700 2,656 Climbing Seattle Center
Mon 06:03:50 PM 43.7061 -124.2528 15° North 302 348 10,900 1,623 Climbing Seattle Center
Mon 06:04:51 PM 43.8075 -124.2139 16° North 366 421 12,000 1,073 Climbing Seattle Center
Mon 06:05:53 PM 43.9156 -124.1700 15° North 401 461 13,100 1,707 Climbing Seattle Center
Mon 06:06:54 PM 44.0278 -124.1275 16° North 413 475 15,500 1,131 Climbing Seattle Center
Mon 06:07:55 PM 44.1414 -124.0814 16° North 420 483 15,400  Descending Seattle Center
Mon 06:08:56 PM 44.2550 -124.0372 16° North 423 487 15,500 49 Climbing Seattle Center
Mon 06:09:57 PM 44.3689 -123.9919 16° North 425 489 15,500 -49 Level Seattle Center
Mon 06:10:59 PM 44.5078 -123.9356 16° North 429 494 15,400 -49 Descending Seattle Center
Mon 06:12:00 PM 44.6211 -123.8903 16° North 427 491 15,400  Level Seattle Center
Mon 06:13:01 PM 44.7350 -123.8439 16° North 424 488 15,400  Level Seattle Center
Mon 06:14:02 PM 44.8489 -123.7983 16° North 423 487 15,400 49 Level Seattle Center
Mon 06:15:04 PM 44.9642 -123.7506 16° North 422 486 15,500 49 Climbing Seattle Center
Mon 06:16:05 PM 45.0794 -123.7025 16° North 423 487 15,500 49 Level Seattle Center
Mon 06:17:06 PM 45.1947 -123.6567 16° North 425 489 15,600 148 Climbing Seattle Center
Mon 06:18:07 PM 45.3075 -123.6094 16° North 422 486 15,800 390 Climbing Seattle Center
Mon 06:19:09 PM 45.4206 -123.5628 16° North 422 486 16,400 683 Climbing Seattle Center
Mon 06:20:10 PM 45.5353 -123.5167 17° North 426 490 17,200 492 Climbing Seattle Center
Mon 06:21:11 PM 45.6497 -123.4681 16° North 429 494 17,400 98 Climbing Seattle Center
Mon 06:22:12 PM 45.7636 -123.4208 17° North 428 493 17,400  Level Seattle Center
Mon 06:23:14 PM 45.8775 -123.3722 16° North 427 491 17,400 49 Level Seattle Center
Mon 06:24:15 PM 45.9925 -123.3236 16° North 429 494 17,500 -246 Climbing Seattle Center
Mon 06:25:16 PM 46.1306 -123.2681 17° North 431 496 16,900 -293 Descending Seattle Center
Mon 06:26:18 PM 46.2436 -123.2183 16° North 429 494 16,900 49 Level Seattle Center
Mon 06:27:19 PM 46.3564 -123.1711 17° North 426 490 17,000  Climbing Seattle Center
Mon 06:28:20 PM 46.4683 -123.1217 16° North 426 490 16,900  Descending Seattle Center
Mon 06:29:22 PM 46.5822 -123.0750 18° North 429 494 17,000 49 Climbing Seattle Center
Mon 06:30:23 PM 46.6944 -123.0231 17° North 426 490 17,000  Level Seattle Center
Mon 06:31:24 PM 46.8275 -122.9644 196° South 424 488 17,000 -98 Level Seattle Center
Mon 06:31:24 PM 46.8064 -122.9733 16° North 425 489 16,900  Descending Seattle Center
Mon 06:32:25 PM 46.9256 -122.9219 104° East 361 415 17,000 97 Climbing Seattle Center
Mon 06:32:26 PM 46.9253 -122.9203 29° Northeast 365 420 17,000 -774 Level Seattle Center
Mon 06:33:27 PM 47.0097 -122.8525 35° Northeast 357 411 16,200 -909 Descending Seattle Center
Mon 06:33:32 PM 47.0189 -122.8431 42° Northeast 348 400 16,000 -1,377 Descending Seattle Center
Mon 06:34:28 PM 47.0789 -122.7650 41° Northeast 331 381 14,800 -1,300 Descending Seattle Center
Mon 06:34:32 PM 47.0875 -122.7542 41° Northeast 332 382 14,700 -1,355 Descending Seattle Center
Mon 06:35:30 PM 47.1450 -122.6803 43° Northeast 321 369 13,400 -1,574 Descending Seattle Center
Mon 06:35:33 PM 47.1561 -122.6653 41° Northeast 314 361 13,100 -1,672 Descending Seattle Center
Mon 06:36:31 PM 47.2092 -122.5981 44° Northeast 313 360 11,700 -1,672 Descending Seattle Center
Mon 06:36:34 PM 47.2214 -122.5808 40° Northeast 310 357 11,400 -1,672 Descending Seattle Center
Mon 06:37:32 PM 47.2711 -122.5183 38° Northeast 302 348 10,000 -1,343 Descending Seattle Center
Mon 06:37:41 PM 47.2875 -122.4992 18° North 294 338 9,900 -98 Descending Seattle Center
Mon 06:38:33 PM 47.3558 -122.4669 357° North 301 346 9,900  Level Seattle Center
Mon 06:38:42 PM 47.3639 -122.4675 North 304 350 9,900 -1,839 Level Seattle Center
Mon 06:39:35 PM 47.4400 -122.4633 358° North 301 346 8,000 -2,459 Descending Seattle Center
Mon 06:39:43 PM 47.4539 -122.4639 North 303 349 7,400 -2,557 Descending Seattle Center
Mon 06:40:36 PM 47.5178 -122.4575 North 279 321 5,400 -2,507 Descending Seattle Center
Mon 06:40:50 PM 47.5389 -122.4567 360° North 267 307 4,600 -3,049 Descending Seattle Center
Mon 06:41:37 PM 47.5936 -122.4564 98° East 256 295 2,300 -1,280 Descending Seattle Center
Mon 06:43:34 PM 47.5839 -122.3531 135° Southeast 150 173 1,100 -683 Descending Seattle Center
Mon 06:43:40 PM 47.5811 -122.3489 149° Southeast 155 178 900 -885 Descending Seattle Center
Mon 06:44:35 PM 47.5489 -122.3200 146° Southeast 171 197 200 15,836 Descending Seattle Center
Mon 06:44:41 PM 47.5417 -122.3128 150° Southeast 156 180 17,000 14,824 Climbing Seattle Center
Mon 06:45:43 PM 47.5033 -122.2794 150° Southeast 157 181 17,000  Level Seattle Center

Login

Don't have an account? Register now (free) for customized features, flight alerts, and more!